CheckWX is a tool to help pilots better visualize weather data.  It is not intended as a substitute for an official pre-flight weather briefing.

17:34:23 UTC

KRUT TAF
Rutland - Southern Vermont Regional Airport
Rutland, Vermont, USA
KRUT 181234Z 1813/1912 VRB03KT P6SM OVC070 FM181800 11005KT P6SM VCSH BKN100 FM182100 VRB03KT P6SM BKN100 FM182300 VRB03KT P6SM SCT100 FM190800 VRB04KT P6SM BKN040

Jun-18@
13:00 UTC

Jun-18 @ 13:00 UTC

Jun-18@
18:00 UTC

Jun-18 @ 18:00 UTC

KRUT 181234Z 1813/1912 VRB03KT P6SM OVC070
Wind
  • Variable at 3 KTS
Cloud Levels
  • Overcast at 7,000' AGL

Jun-18@
18:00 UTC

Jun-18 @ 18:00 UTC

Jun-18@
21:00 UTC

Jun-18 @ 21:00 UTC

FM181800 11005KT P6SM VCSH BKN100

From

From Standard forecast or significant change

Wind
  • 110° at 5 KTS
Cloud Levels
  • Broken at 10,000' AGL

Jun-18@
21:00 UTC

Jun-18 @ 21:00 UTC

Jun-18@
23:00 UTC

Jun-18 @ 23:00 UTC

FM182100 VRB03KT P6SM BKN100

From

From Standard forecast or significant change

Wind
  • Variable at 3 KTS
Cloud Levels
  • Broken at 10,000' AGL

Jun-18@
23:00 UTC

Jun-18 @ 23:00 UTC

Jun-19@
08:00 UTC

Jun-19 @ 08:00 UTC

FM182300 VRB03KT P6SM SCT100

From

From Standard forecast or significant change

Wind
  • Variable at 3 KTS
Cloud Levels
  • Scattered at 10,000' AGL

Jun-19@
08:00 UTC

Jun-19 @ 08:00 UTC

Jun-19@
12:00 UTC

Jun-19 @ 12:00 UTC

FM190800 VRB04KT P6SM BKN040

From

From Standard forecast or significant change

Wind
  • Variable at 4 KTS
Cloud Levels
  • Broken at 4,000' AGL